createdAt,value
2023-04-02T00:00:26.555Z,2.42
2023-04-02T00:05:31.403Z,2.55
2023-04-02T00:09:53.576Z,3.00
2023-04-02T00:14:36.382Z,2.63
2023-04-02T00:19:06.535Z,4.07
2023-04-02T00:23:28.958Z,3.58
2023-04-02T00:27:51.376Z,4.07
2023-04-02T00:32:27.760Z,3.28
2023-04-02T00:36:51.923Z,3.47
2023-04-02T00:41:24.357Z,3.80
2023-04-02T00:45:52.689Z,2.88
2023-04-02T00:50:15.725Z,3.13
2023-04-02T00:55:10.745Z,3.60
2023-04-02T00:59:42.960Z,3.67
2023-04-02T01:04:06.357Z,4.15
2023-04-02T01:08:43.257Z,4.30
2023-04-02T01:13:26.245Z,4.05
2023-04-02T01:18:19.989Z,3.75
2023-04-02T01:23:39.674Z,3.65
2023-04-02T01:28:41.047Z,3.80
2023-04-02T01:33:05.217Z,4.05
2023-04-02T01:37:29.893Z,4.30
2023-04-02T01:42:16.485Z,4.00
2023-04-02T01:46:42.538Z,4.60
2023-04-02T01:51:08.354Z,4.82
2023-04-02T01:55:41.012Z,5.15
2023-04-02T02:00:10.297Z,5.97
2023-04-02T02:04:35.251Z,5.63
2023-04-02T02:09:03.952Z,4.38
2023-04-02T02:13:27.041Z,3.83
2023-04-02T02:17:50.553Z,4.65
2023-04-02T02:22:37.278Z,4.78
2023-04-02T02:27:25.417Z,5.15
2023-04-02T02:32:01.862Z,5.03
2023-04-02T02:36:45.700Z,4.43
2023-04-02T02:41:50.319Z,4.38
2023-04-02T02:46:20.372Z,5.32
2023-04-02T02:50:43.170Z,4.82
2023-04-02T02:55:17.350Z,6.10
2023-04-02T02:59:48.793Z,5.45
2023-04-02T03:04:11.440Z,5.78
2023-04-02T03:09:13.589Z,4.75
2023-04-02T03:13:39.171Z,4.63
2023-04-02T03:18:26.279Z,4.05
2023-04-02T03:23:22.609Z,4.70
2023-04-02T03:27:49.496Z,4.25
2023-04-02T03:32:26.284Z,3.92
2023-04-02T03:37:20.394Z,4.20
2023-04-02T03:41:51.274Z,3.83
2023-04-02T03:46:44.964Z,3.92
2023-04-02T03:51:24.848Z,3.25
2023-04-02T03:55:48.015Z,4.05
2023-04-02T04:00:22.863Z,4.93
2023-04-02T04:04:50.653Z,6.03
2023-04-02T04:09:25.798Z,7.43
2023-04-02T04:14:11.735Z,6.93
2023-04-02T04:19:13.493Z,7.63
2023-04-02T04:23:41.232Z,7.18
2023-04-02T04:28:46.834Z,6.45
2023-04-02T04:33:29.194Z,8.07
2023-04-02T04:38:05.033Z,8.18
2023-04-02T04:42:33.335Z,5.65
2023-04-02T04:47:31.175Z,5.90
2023-04-02T04:52:25.995Z,6.20
2023-04-02T04:56:55.944Z,10.02
2023-04-02T05:02:14.080Z,5.45
2023-04-02T05:06:49.723Z,8.20
2023-04-02T05:11:46.546Z,5.35
2023-04-02T05:16:30.057Z,6.75
2023-04-02T05:21:07.202Z,3.88
2023-04-02T05:25:33.520Z,8.15
2023-04-02T05:30:24.047Z,5.00
2023-04-02T05:34:55.040Z,4.30
2023-04-02T05:39:24.905Z,4.05
2023-04-02T05:44:06.456Z,4.18
2023-04-02T05:48:39.494Z,5.00
2023-04-02T05:53:31.196Z,4.38
2023-04-02T05:58:34.726Z,4.45
2023-04-02T06:03:10.785Z,3.88
2023-04-02T06:07:53.037Z,4.68
2023-04-02T06:12:30.696Z,3.85
2023-04-02T06:16:53.810Z,4.43
2023-04-02T06:21:20.929Z,7.78
2023-04-02T06:25:55.633Z,4.47
2023-04-02T06:30:42.060Z,4.78
2023-04-02T06:35:05.130Z,4.30
2023-04-02T06:39:27.840Z,4.65
2023-04-02T06:44:19.797Z,4.45
2023-04-02T06:49:02.068Z,4.18
2023-04-02T06:53:49.679Z,4.25
2023-04-02T06:58:16.985Z,4.40
2023-04-02T07:02:41.126Z,3.72
2023-04-02T07:07:06.283Z,3.97
2023-04-02T07:11:32.446Z,3.67
2023-04-02T07:15:58.002Z,3.58
2023-04-02T07:20:38.890Z,3.30
2023-04-02T07:25:05.995Z,3.22
2023-04-02T07:29:28.353Z,2.90
2023-04-02T07:33:51.075Z,3.42
2023-04-02T07:38:13.402Z,3.78
2023-04-02T07:42:35.352Z,4.57
2023-04-02T07:46:57.288Z,5.22
2023-04-02T07:51:26.812Z,5.10
2023-04-02T07:55:53.603Z,5.38
2023-04-02T08:00:17.392Z,6.28
2023-04-02T08:04:39.230Z,5.22
2023-04-02T08:09:01.606Z,4.75
2023-04-02T08:13:23.516Z,5.03
2023-04-02T08:17:48.153Z,6.13
2023-04-02T08:22:10.636Z,5.18
2023-04-02T08:26:32.436Z,5.18
2023-04-02T08:30:54.530Z,5.28
2023-04-02T08:35:17.699Z,5.13
2023-04-02T08:39:40.776Z,4.53
2023-04-02T08:44:45.780Z,3.28
2023-04-02T08:49:29.333Z,4.25
2023-04-02T08:54:15.116Z,4.20
2023-04-02T08:58:41.853Z,3.30
2023-04-02T09:03:19.749Z,3.55
2023-04-02T09:07:42.359Z,4.32
2023-04-02T09:12:07.178Z,3.55
2023-04-02T09:16:43.774Z,4.43
2023-04-02T09:21:21.260Z,2.95
2023-04-02T09:26:03.622Z,3.47
2023-04-02T09:30:32.341Z,3.25
2023-04-02T09:35:26.610Z,2.63
2023-04-02T09:40:23.838Z,2.53
2023-04-02T09:44:45.997Z,2.88
2023-04-02T09:49:16.259Z,3.05
2023-04-02T09:54:14.958Z,3.00
2023-04-02T09:58:36.879Z,3.53
2023-04-02T10:03:41.134Z,2.10
2023-04-02T10:08:20.576Z,2.22
2023-04-02T10:12:44.513Z,2.78
2023-04-02T10:17:28.217Z,2.20
2023-04-02T10:21:52.515Z,2.10
2023-04-02T10:26:41.491Z,2.15
2023-04-02T10:31:26.487Z,2.20
2023-04-02T10:36:07.090Z,2.08
2023-04-02T10:40:51.736Z,1.83
2023-04-02T10:45:44.594Z,2.67
2023-04-02T10:50:32.613Z,2.35
2023-04-02T10:54:58.776Z,1.98
2023-04-02T10:59:27.246Z,2.00
2023-04-02T11:03:57.801Z,1.90
2023-04-02T11:08:51.658Z,1.90
2023-04-02T11:13:33.656Z,1.90
2023-04-02T11:17:55.669Z,2.33
2023-04-02T11:22:24.718Z,6.53
2023-04-02T11:26:47.674Z,2.70
2023-04-02T11:31:20.863Z,2.30
2023-04-02T11:35:43.026Z,2.35
2023-04-02T11:40:14.333Z,1.88
2023-04-02T11:44:36.630Z,2.70
2023-04-02T11:49:37.360Z,1.80
2023-04-02T11:53:59.500Z,1.88
2023-04-02T11:58:49.317Z,1.67
2023-04-02T12:03:59.055Z,2.40
2023-04-02T12:08:41.897Z,2.17
2023-04-02T12:13:21.234Z,3.10
2023-04-02T12:17:43.369Z,1.90
2023-04-02T12:22:05.692Z,2.08
2023-04-02T12:26:38.382Z,2.13
2023-04-02T12:31:08.583Z,1.90
2023-04-02T12:35:36.687Z,1.73
2023-04-02T12:40:16.349Z,2.55
2023-04-02T12:44:38.197Z,2.03
2023-04-02T12:49:38.138Z,1.85
2023-04-02T12:53:59.913Z,2.40
2023-04-02T12:58:39.307Z,2.95
2023-04-02T13:03:18.034Z,2.20
2023-04-02T13:07:42.105Z,1.92
2023-04-02T13:12:04.717Z,2.25
2023-04-02T13:16:34.215Z,2.35
2023-04-02T13:20:59.863Z,2.28
2023-04-02T13:25:36.636Z,2.40
2023-04-02T13:30:18.868Z,1.95
2023-04-02T13:34:40.988Z,5.30
2023-04-02T13:39:03.353Z,1.35
2023-04-02T13:43:25.832Z,1.80
2023-04-02T13:47:48.135Z,2.25
2023-04-02T13:52:16.181Z,1.60
2023-04-02T13:56:38.854Z,1.90
2023-04-02T14:01:01.948Z,2.28
2023-04-02T14:05:48.735Z,2.03
2023-04-02T14:11:01.840Z,2.38
2023-04-02T14:15:59.155Z,2.20
2023-04-02T14:21:17.393Z,1.73
2023-04-02T14:25:53.517Z,2.00
2023-04-02T14:30:28.175Z,2.33
2023-04-02T14:35:17.035Z,1.27
2023-04-02T14:40:01.896Z,2.35
2023-04-02T14:44:28.094Z,2.05
2023-04-02T14:49:09.142Z,2.13
2023-04-02T14:53:46.894Z,1.73
2023-04-02T14:58:31.502Z,2.03
2023-04-02T15:03:23.888Z,1.70
2023-04-02T15:08:58.605Z,1.55
2023-04-02T15:14:06.376Z,1.58
2023-04-02T15:18:28.173Z,1.88
2023-04-02T15:23:06.624Z,1.95
2023-04-02T15:27:51.413Z,1.75
2023-04-02T15:32:47.051Z,1.80
2023-04-02T15:37:27.373Z,1.73
2023-04-02T15:42:31.110Z,11.68
2023-04-02T15:46:56.271Z,3.88
2023-04-02T15:51:41.397Z,5.72
2023-04-02T15:57:07.537Z,1.75
2023-04-02T16:02:13.874Z,1.55
2023-04-02T16:07:01.223Z,2.72
2023-04-02T16:11:25.180Z,6.82
2023-04-02T16:16:27.247Z,1.70
2023-04-02T16:20:53.172Z,1.23
2023-04-02T16:25:19.621Z,1.80
2023-04-02T16:29:57.504Z,4.20
2023-04-02T16:34:34.697Z,1.73
2023-04-02T16:39:08.492Z,1.55
2023-04-02T16:43:42.320Z,1.85
2023-04-02T16:48:24.378Z,1.40
2023-04-02T16:53:03.085Z,1.42
2023-04-02T16:57:58.381Z,1.55
2023-04-02T17:02:40.068Z,2.30
2023-04-02T17:07:41.259Z,1.67
2023-04-02T17:12:38.431Z,1.60
2023-04-02T17:17:04.931Z,1.65
2023-04-02T17:21:30.992Z,1.65
2023-04-02T17:26:07.176Z,1.85
2023-04-02T17:30:38.254Z,1.85
2023-04-02T17:35:26.673Z,2.50
2023-04-02T17:40:30.394Z,2.33
2023-04-02T17:45:18.357Z,2.47
2023-04-02T17:50:17.924Z,1.83
2023-04-02T17:54:58.767Z,2.15
2023-04-02T17:59:30.838Z,2.35
2023-04-02T18:04:53.016Z,1.85
2023-04-02T18:09:33.977Z,2.17
2023-04-02T18:14:18.151Z,2.70
2023-04-02T18:19:12.243Z,2.25
2023-04-02T18:24:06.878Z,2.72
2023-04-02T18:28:48.896Z,2.15
2023-04-02T18:33:37.832Z,2.08
2023-04-02T18:38:32.849Z,2.10
2023-04-02T18:43:26.379Z,2.55
2023-04-02T18:48:20.001Z,2.17
2023-04-02T18:52:43.019Z,2.20
2023-04-02T18:57:39.047Z,2.20
2023-04-02T19:02:14.673Z,2.10
2023-04-02T19:06:48.632Z,2.10
2023-04-02T19:11:19.361Z,2.50
2023-04-02T19:16:18.467Z,2.80
2023-04-02T19:20:58.604Z,3.50
2023-04-02T19:25:51.140Z,2.92
2023-04-02T19:31:01.974Z,2.40
2023-04-02T19:35:33.499Z,2.92
2023-04-02T19:40:29.217Z,2.47
2023-04-02T19:44:53.781Z,1.75
2023-04-02T19:49:34.905Z,2.85
2023-04-02T19:53:57.416Z,3.33
2023-04-02T19:58:34.346Z,2.58
2023-04-02T20:02:56.394Z,3.15
2023-04-02T20:07:18.441Z,3.10
2023-04-02T20:11:40.573Z,2.55
2023-04-02T20:16:06.008Z,2.70
2023-04-02T20:20:28.168Z,2.95
2023-04-02T20:24:50.609Z,2.60
2023-04-02T20:29:12.811Z,2.72
2023-04-02T20:33:35.496Z,2.35
2023-04-02T20:37:58.091Z,3.00
2023-04-02T20:42:20.273Z,2.85
2023-04-02T20:46:42.587Z,2.97
2023-04-02T20:51:07.544Z,2.38
2023-04-02T20:55:29.383Z,2.80
2023-04-02T20:59:51.514Z,2.55
2023-04-02T21:04:14.415Z,2.92
2023-04-02T21:08:37.183Z,2.35
2023-04-02T21:12:59.270Z,2.35
2023-04-02T21:17:21.482Z,2.45
2023-04-02T21:21:44.992Z,2.00
2023-04-02T21:26:08.004Z,2.20
2023-04-02T21:30:29.906Z,2.25
2023-04-02T21:34:52.238Z,2.70
2023-04-02T21:39:24.576Z,2.13
2023-04-02T21:43:48.431Z,2.13
2023-04-02T21:48:10.887Z,2.22
2023-04-02T21:52:32.785Z,1.70
2023-04-02T21:56:55.404Z,1.77
2023-04-02T22:01:27.350Z,2.30
2023-04-02T22:05:49.789Z,1.65
2023-04-02T22:10:11.943Z,1.67
2023-04-02T22:14:34.714Z,1.92
2023-04-02T22:18:59.635Z,1.60
2023-04-02T22:23:25.746Z,1.45
2023-04-02T22:27:48.134Z,1.55
2023-04-02T22:32:10.603Z,1.70
2023-04-02T22:36:33.611Z,1.23
2023-04-02T22:41:10.507Z,1.80
2023-04-02T22:45:32.230Z,1.80
2023-04-02T22:49:54.450Z,1.65
2023-04-02T22:54:16.544Z,1.88
2023-04-02T22:58:39.520Z,1.52
2023-04-02T23:03:01.721Z,2.10
2023-04-02T23:07:23.832Z,1.35
2023-04-02T23:11:45.966Z,1.65
2023-04-02T23:16:14.941Z,1.40
2023-04-02T23:20:37.374Z,2.00
2023-04-02T23:25:00.036Z,1.73
2023-04-02T23:29:22.293Z,1.88
2023-04-02T23:33:44.442Z,1.10
2023-04-02T23:38:07.989Z,1.98
2023-04-02T23:42:30.587Z,2.00
2023-04-02T23:46:53.456Z,2.17
2023-04-02T23:51:15.630Z,1.70
2023-04-02T23:55:38.083Z,1.00
